Time;durP1;ratioP1;P1;durP2;ratioP2;P2;SDS_P1;SDS_P2;PMS_P1;PMS_P2;Temp;Humidity;BMP_temperature;BMP_pressure;BME280_temperature;BME280_humidity;BME280_pressure;Samples;Min_cycle;Max_cycle;Signal;HPM_P1;HPM_P2
2022/07/03 00:00:29;;;;;;;2.50;2.20;;;26.10;63.30;;;;;;5028043;28;20468;-81
2022/07/03 00:02:57;;;;;;;3.00;2.40;;;26.10;63.30;;;;;;5040492;28;20461;-84
2022/07/03 00:05:25;;;;;;;4.40;2.77;;;26.10;63.20;;;;;;5039135;28;20536;-83
2022/07/03 00:07:53;;;;;;;2.50;2.20;;;26.10;63.30;;;;;;5042304;28;20462;-83
2022/07/03 00:10:22;;;;;;;2.30;2.10;;;26.10;63.30;;;;;;5049838;28;20466;-81
2022/07/03 00:12:50;;;;;;;2.53;2.13;;;26.10;63.30;;;;;;5040860;28;20462;-82
2022/07/03 00:15:18;;;;;;;2.00;1.73;;;26.10;63.20;;;;;;5048698;28;20446;-82
2022/07/03 00:17:48;;;;;;;4.20;2.00;;;26.10;63.10;;;;;;5042418;28;20483;-83
2022/07/03 00:20:16;;;;;;;2.80;2.47;;;26.00;63.10;;;;;;5045585;28;20498;-84
2022/07/03 00:22:46;;;;;;;2.40;2.20;;;26.10;63.10;;;;;;5050006;28;20446;-82
2022/07/03 00:25:14;;;;;;;2.80;2.30;;;26.00;63.00;;;;;;5047227;28;20481;-81
2022/07/03 00:27:45;;;;;;;2.70;2.50;;;26.00;63.00;;;;;;5053049;28;20462;-81
2022/07/03 00:30:14;;;;;;;3.43;2.87;;;26.00;63.00;;;;;;5035916;28;20453;-83
2022/07/03 00:32:42;;;;;;;2.03;1.93;;;26.00;63.00;;;;;;5039429;28;20454;-82
2022/07/03 00:35:17;;;;;;;3.83;2.47;;;26.00;63.10;;;;;;5033349;28;20437;-82
2022/07/03 00:37:45;;;;;;;2.47;2.27;;;26.00;63.10;;;;;;5032876;28;20455;-80
2022/07/03 00:40:14;;;;;;;3.00;2.80;;;26.00;63.10;;;;;;5014771;28;20463;-81
2022/07/03 00:42:43;;;;;;;2.73;2.37;;;26.00;63.10;;;;;;5033570;28;20459;-80
2022/07/03 00:45:14;;;;;;;2.73;2.33;;;26.00;63.20;;;;;;5052099;28;20434;-84
2022/07/03 00:47:43;;;;;;;2.50;2.30;;;26.00;63.20;;;;;;5029753;28;20450;-80
2022/07/03 00:50:13;;;;;;;2.63;2.40;;;26.00;63.20;;;;;;5012005;28;1167085;-81
2022/07/03 00:52:47;;;;;;;3.20;2.40;;;26.00;63.20;;;;;;5053848;28;20229;-80
2022/07/03 00:55:17;;;;;;;2.20;2.00;;;26.00;63.20;;;;;;5053251;28;20469;-80
2022/07/03 00:57:47;;;;;;;3.10;2.40;;;25.90;63.20;;;;;;5053619;28;20456;-81
2022/07/03 01:00:17;;;;;;;3.83;2.50;;;25.90;63.20;;;;;;5053581;28;20911;-79
2022/07/03 01:02:52;;;;;;;2.70;2.50;;;25.90;63.30;;;;;;5053169;28;20427;-81
2022/07/03 01:05:28;;;;;;;2.80;2.60;;;25.90;63.30;;;;;;5046594;28;20827;-80
2022/07/03 01:08:16;;;;;;;2.50;2.30;;;25.90;63.30;;;;;;5032041;28;20466;-80
2022/07/03 01:10:52;;;;;;;2.67;2.47;;;25.90;63.30;;;;;;5027487;28;20914;-80
2022/07/03 01:13:28;;;;;;;2.40;2.20;;;25.90;63.30;;;;;;5032956;28;20422;-80
2022/07/03 01:16:04;;;;;;;2.37;2.17;;;25.90;63.30;;;;;;5041780;28;20886;-79
2022/07/03 01:18:41;;;;;;;2.13;1.93;;;25.90;63.30;;;;;;5036996;28;20457;-81
2022/07/03 01:21:19;;;;;;;3.20;2.50;;;25.90;63.40;;;;;;5043408;28;20934;-80
2022/07/03 01:24:17;;;;;;;3.80;2.60;;;25.90;63.40;;;;;;5033020;28;20430;-82
2022/07/03 01:26:48;;;;;;;2.40;2.13;;;25.80;63.30;;;;;;5030531;28;20632;-81
2022/07/03 01:29:23;;;;;;;2.83;2.63;;;25.80;63.40;;;;;;5032564;28;20523;-82
2022/07/03 01:31:54;;;;;;;2.77;2.00;;;25.80;63.30;;;;;;5046888;28;20510;-80
2022/07/03 01:34:25;;;;;;;2.93;2.00;;;25.80;63.30;;;;;;5049793;28;20417;-80
2022/07/03 01:36:58;;;;;;;1.83;1.67;;;25.80;63.40;;;;;;5032844;28;20886;-80
2022/07/03 01:39:28;;;;;;;2.60;1.97;;;25.80;63.40;;;;;;5045976;28;20484;-80
2022/07/03 01:42:19;;;;;;;2.10;1.90;;;25.80;63.40;;;;;;5052338;28;20445;-80
2022/07/03 01:44:51;;;;;;;2.70;2.50;;;25.80;63.50;;;;;;5052079;28;20453;-83
2022/07/03 01:47:19;;;;;;;5.07;2.70;;;25.80;63.40;;;;;;5049832;28;20469;-79
2022/07/03 01:49:55;;;;;;;2.33;2.13;;;25.80;63.40;;;;;;5032021;28;20588;-80
2022/07/03 01:52:25;;;;;;;2.40;2.20;;;25.80;63.40;;;;;;5032355;28;20452;-79
2022/07/03 01:55:15;;;;;;;2.53;2.33;;;25.80;63.50;;;;;;5052744;28;20438;-79
2022/07/03 01:57:47;;;;;;;2.27;2.07;;;25.80;63.50;;;;;;5052260;28;20480;-79
2022/07/03 02:00:18;;;;;;;2.40;2.03;;;25.70;63.50;;;;;;5052393;28;20476;-81
2022/07/03 02:03:01;;;;;;;2.70;2.50;;;25.70;63.60;;;;;;5044947;28;20574;-80
2022/07/03 02:05:42;;;;;;;2.30;2.10;;;25.70;63.60;;;;;;5012450;28;20423;-79
2022/07/03 02:08:27;;;;;;;2.40;2.03;;;25.70;63.60;;;;;;5020830;28;20478;-86
2022/07/03 02:11:10;;;;;;;3.10;2.30;;;25.70;63.60;;;;;;5052707;28;20457;-80
2022/07/03 02:13:51;;;;;;;2.80;2.10;;;25.70;63.60;;;;;;5052275;28;20534;-80
2022/07/03 02:16:21;;;;;;;3.00;2.43;;;25.70;63.60;;;;;;5051776;28;20473;-80
2022/07/03 02:18:58;;;;;;;3.13;2.83;;;25.70;63.60;;;;;;5045817;28;20478;-80
2022/07/03 02:21:29;;;;;;;2.33;2.13;;;25.70;63.60;;;;;;5032098;28;20847;-81
2022/07/03 02:24:13;;;;;;;2.23;2.03;;;25.70;63.60;;;;;;5032132;28;20438;-80
2022/07/03 02:26:43;;;;;;;3.20;2.10;;;25.70;63.60;;;;;;5032030;28;20823;-80
2022/07/03 02:29:18;;;;;;;2.47;2.27;;;25.70;63.50;;;;;;5032046;28;20494;-80
2022/07/03 02:31:55;;;;;;;2.50;2.30;;;25.60;63.50;;;;;;5031737;28;20856;-82
2022/07/03 02:34:25;;;;;;;2.60;2.33;;;25.60;63.50;;;;;;5031464;28;20533;-79
2022/07/03 02:36:58;;;;;;;2.43;2.10;;;25.60;63.40;;;;;;5030949;28;20888;-79
2022/07/03 02:39:33;;;;;;;2.50;2.30;;;25.60;63.50;;;;;;5030689;28;20486;-80
2022/07/03 02:42:05;;;;;;;3.73;2.23;;;25.60;63.50;;;;;;5033767;28;20453;-81
2022/07/03 02:44:43;;;;;;;4.30;2.80;;;25.60;63.40;;;;;;5032659;28;20884;-79
2022/07/03 02:47:21;;;;;;;2.37;2.17;;;25.60;63.40;;;;;;5035865;28;20482;-81
2022/07/03 02:49:59;;;;;;;2.60;2.40;;;25.60;63.40;;;;;;5044327;28;20530;-79
2022/07/03 02:52:41;;;;;;;2.60;2.40;;;25.60;63.40;;;;;;5051960;28;20867;-79
2022/07/03 02:55:18;;;;;;;5.23;3.20;;;25.50;63.50;;;;;;5051229;28;20477;-80
2022/07/03 02:57:51;;;;;;;2.43;2.23;;;25.50;63.30;;;;;;5029597;28;20826;-83
2022/07/03 03:00:21;;;;;;;3.13;2.63;;;25.50;63.40;;;;;;5031867;28;20473;-79
2022/07/03 03:02:54;;;;;;;2.27;2.07;;;25.50;63.50;;;;;;5031076;28;20447;-79
2022/07/03 03:05:28;;;;;;;2.23;1.93;;;25.50;63.60;;;;;;5013325;28;20838;-79
2022/07/03 03:08:09;;;;;;;4.03;2.10;;;25.50;63.50;;;;;;5044226;28;20481;-81
2022/07/03 03:10:38;;;;;;;3.57;2.77;;;25.50;63.50;;;;;;5051486;28;20932;-79
2022/07/03 03:13:09;;;;;;;2.50;2.30;;;25.50;63.40;;;;;;5051473;28;20439;-82
2022/07/03 03:15:40;;;;;;;2.20;2.00;;;25.50;63.50;;;;;;5051968;28;20460;-79
2022/07/03 03:18:11;;;;;;;2.80;2.37;;;25.50;63.60;;;;;;5039818;28;20492;-81
2022/07/03 03:20:41;;;;;;;2.67;2.40;;;25.50;63.60;;;;;;5031628;28;20793;-84
2022/07/03 03:23:20;;;;;;;2.70;2.50;;;25.40;63.60;;;;;;5032247;28;20491;-82
2022/07/03 03:25:48;;;;;;;2.33;2.13;;;25.40;63.70;;;;;;5031409;28;20447;-80
2022/07/03 03:28:16;;;;;;;5.73;3.40;;;25.40;63.60;;;;;;5045167;28;20507;-81
2022/07/03 03:30:46;;;;;;;4.17;2.40;;;25.40;63.50;;;;;;5052313;28;20433;-79
2022/07/03 03:33:15;;;;;;;2.57;2.37;;;25.40;63.50;;;;;;5040893;28;20503;-79
2022/07/03 03:35:43;;;;;;;2.60;2.40;;;25.40;63.60;;;;;;5041778;28;20457;-79
2022/07/03 03:38:12;;;;;;;2.80;2.60;;;25.40;63.50;;;;;;5025279;28;20804;-81
2022/07/03 03:40:41;;;;;;;11.80;2.80;;;25.40;63.50;;;;;;5041763;28;20813;-79
2022/07/03 03:43:09;;;;;;;3.20;2.90;;;25.40;63.60;;;;;;5044896;28;20436;-81
2022/07/03 03:45:37;;;;;;;4.90;2.77;;;25.40;63.40;;;;;;5043331;28;20437;-80
2022/07/03 03:48:08;;;;;;;6.43;2.90;;;25.40;63.50;;;;;;5041604;28;20832;-80
2022/07/03 03:50:36;;;;;;;2.87;2.27;;;25.40;63.60;;;;;;5035499;28;20477;-80
2022/07/03 03:53:05;;;;;;;2.70;2.50;;;25.40;63.70;;;;;;5035546;28;20465;-80
2022/07/03 03:55:33;;;;;;;2.33;2.13;;;25.40;63.70;;;;;;5034374;28;20440;-81
2022/07/03 03:58:01;;;;;;;3.70;2.50;;;25.40;63.70;;;;;;5048212;28;20455;-80
2022/07/03 04:00:30;;;;;;;4.60;2.33;;;25.40;63.60;;;;;;5054407;28;20862;-79
2022/07/03 04:02:58;;;;;;;2.57;2.37;;;25.40;63.70;;;;;;5054142;28;20493;-81
2022/07/03 04:05:28;;;;;;;3.10;2.80;;;25.40;63.70;;;;;;5054183;28;20435;-79
2022/07/03 04:07:58;;;;;;;2.30;2.10;;;25.40;63.70;;;;;;5050469;28;20466;-80
2022/07/03 04:10:27;;;;;;;2.33;2.03;;;25.40;63.70;;;;;;5033980;28;20438;-80
2022/07/03 04:12:56;;;;;;;2.20;2.00;;;25.40;63.80;;;;;;5033773;28;20460;-80
2022/07/03 04:15:24;;;;;;;2.80;1.87;;;25.40;63.70;;;;;;5035828;28;20541;-81
2022/07/03 04:17:52;;;;;;;2.37;2.17;;;25.40;63.80;;;;;;5036525;28;20471;-80
2022/07/03 04:20:21;;;;;;;3.27;2.30;;;25.40;63.70;;;;;;5053855;28;20499;-80
2022/07/03 04:22:50;;;;;;;2.40;2.20;;;25.40;63.70;;;;;;5040501;28;20817;-80
2022/07/03 04:25:18;;;;;;;2.50;2.30;;;25.40;63.80;;;;;;5033769;28;20482;-80
2022/07/03 04:27:47;;;;;;;3.27;2.33;;;25.40;63.70;;;;;;5033772;28;20570;-80
2022/07/03 04:30:35;;;;;;;2.33;2.13;;;25.40;63.70;;;;;;5036119;28;20575;-79
2022/07/03 04:33:03;;;;;;;4.63;2.73;;;25.40;63.70;;;;;;5053843;28;20862;-80
2022/07/03 04:35:32;;;;;;;3.27;2.40;;;25.40;63.80;;;;;;5053538;28;20497;-80
2022/07/03 04:38:01;;;;;;;2.93;2.60;;;25.40;63.80;;;;;;5053624;28;20946;-81
2022/07/03 04:40:29;;;;;;;3.00;2.70;;;25.40;63.90;;;;;;5035035;28;20870;-80
2022/07/03 04:42:58;;;;;;;5.67;2.73;;;25.40;63.80;;;;;;5044025;28;20503;-80
2022/07/03 04:45:26;;;;;;;3.13;2.63;;;25.40;63.80;;;;;;5052997;28;20463;-80
2022/07/03 04:47:54;;;;;;;3.20;2.83;;;25.40;63.80;;;;;;5052167;28;20473;-79
2022/07/03 04:50:22;;;;;;;3.97;2.37;;;25.40;63.70;;;;;;5052824;28;20537;-80
2022/07/03 04:52:50;;;;;;;2.53;2.33;;;25.40;63.80;;;;;;5053095;28;20483;-80
2022/07/03 04:55:20;;;;;;;3.10;2.90;;;25.40;63.80;;;;;;5052160;28;20530;-81
2022/07/03 04:57:48;;;;;;;2.70;2.50;;;25.40;63.90;;;;;;5053825;28;20417;-80
2022/07/03 05:00:17;;;;;;;3.70;2.70;;;25.40;63.90;;;;;;5049726;28;20532;-84
2022/07/03 05:02:45;;;;;;;8.90;3.27;;;25.40;63.90;;;;;;5047331;28;20850;-85
2022/07/03 05:05:13;;;;;;;2.40;2.20;;;25.40;64.00;;;;;;5051110;28;20460;-80
2022/07/03 05:07:41;;;;;;;2.60;2.40;;;25.40;64.00;;;;;;5052978;28;20603;-80
2022/07/03 05:10:10;;;;;;;3.20;2.57;;;25.40;63.90;;;;;;5051911;28;20857;-84
2022/07/03 05:12:39;;;;;;;2.80;2.60;;;25.40;64.00;;;;;;5028428;28;20931;-82
2022/07/03 05:15:10;;;;;;;2.27;2.07;;;25.40;64.00;;;;;;5032804;28;20431;-81
2022/07/03 05:17:38;;;;;;;2.93;2.30;;;25.40;63.80;;;;;;5031444;28;20488;-85
2022/07/03 05:20:28;;;;;;;2.67;2.47;;;25.40;64.10;;;;;;5052130;28;20499;-84
2022/07/03 05:22:57;;;;;;;2.83;2.53;;;25.40;63.90;;;;;;5046574;28;20452;-80
2022/07/03 05:25:25;;;;;;;3.03;2.43;;;25.40;64.00;;;;;;5033675;28;20452;-80
2022/07/03 05:27:55;;;;;;;2.90;2.70;;;25.40;64.10;;;;;;5053096;28;20426;-80
2022/07/03 05:30:25;;;;;;;2.50;2.30;;;25.40;64.00;;;;;;5049983;28;20428;-80
2022/07/03 05:32:53;;;;;;;2.43;2.00;;;25.40;64.00;;;;;;5037358;28;20885;-80
2022/07/03 05:35:22;;;;;;;2.80;2.53;;;25.40;64.00;;;;;;5034620;28;20533;-80
2022/07/03 05:37:50;;;;;;;5.30;2.10;;;25.40;64.10;;;;;;5039273;28;20480;-80
2022/07/03 05:40:18;;;;;;;2.53;2.33;;;25.40;64.00;;;;;;5050046;28;20460;-81
2022/07/03 05:42:47;;;;;;;4.33;2.80;;;25.40;64.00;;;;;;5040509;28;20517;-80
2022/07/03 05:45:17;;;;;;;3.97;2.80;;;25.50;63.90;;;;;;5026400;28;20518;-82
2022/07/03 05:47:45;;;;;;;3.10;2.80;;;25.40;64.00;;;;;;5050481;28;20505;-82
2022/07/03 05:50:14;;;;;;;2.60;2.20;;;25.40;64.00;;;;;;5052548;28;20475;-80
2022/07/03 05:52:42;;;;;;;3.10;2.80;;;25.40;64.00;;;;;;5044614;28;20542;-81
2022/07/03 05:55:10;;;;;;;6.10;4.80;;;25.50;64.00;;;;;;5047628;28;20484;-82
2022/07/03 05:57:38;;;;;;;5.70;5.10;;;25.50;64.60;;;;;;5030452;28;20500;-83
2022/07/03 06:00:07;;;;;;;2.67;2.43;;;25.50;64.60;;;;;;5032831;28;20492;-82
2022/07/03 06:02:37;;;;;;;3.53;2.13;;;25.50;64.20;;;;;;5034079;28;20460;-81
2022/07/03 06:05:06;;;;;;;4.10;2.57;;;25.50;64.00;;;;;;5033468;28;20953;-82
2022/07/03 06:07:35;;;;;;;2.40;2.20;;;25.50;64.10;;;;;;5043855;28;20477;-82
2022/07/03 06:10:04;;;;;;;4.13;2.70;;;25.50;64.10;;;;;;5033988;28;20588;-81
2022/07/03 06:12:32;;;;;;;4.00;2.77;;;25.50;64.10;;;;;;5034770;28;20469;-81
2022/07/03 06:15:00;;;;;;;3.00;2.80;;;25.50;64.10;;;;;;5037809;28;20496;-81
2022/07/03 06:17:30;;;;;;;3.23;2.43;;;25.50;64.10;;;;;;5036657;28;20813;-81
2022/07/03 06:19:59;;;;;;;2.97;2.10;;;25.50;64.10;;;;;;5049374;28;20458;-82
2022/07/03 06:22:27;;;;;;;3.50;2.47;;;25.50;63.90;;;;;;5054168;28;20447;-81
2022/07/03 06:24:56;;;;;;;2.80;2.20;;;25.60;64.00;;;;;;5032112;28;20510;-84
2022/07/03 06:27:24;;;;;;;6.80;2.73;;;25.60;64.00;;;;;;5037284;28;20568;-81
2022/07/03 06:29:52;;;;;;;10.67;3.40;;;25.60;64.10;;;;;;5031855;28;20524;-82
2022/07/03 06:32:20;;;;;;;4.87;2.80;;;25.60;65.70;;;;;;5021954;28;20532;-84
2022/07/03 06:34:49;;;;;;;5.47;3.80;;;25.60;65.40;;;;;;5029206;28;20472;-82
2022/07/03 06:37:19;;;;;;;4.47;3.10;;;25.60;65.50;;;;;;5039022;28;21332;-83
2022/07/03 06:39:47;;;;;;;5.03;3.57;;;25.70;65.60;;;;;;5036774;28;20521;-82
2022/07/03 06:42:15;;;;;;;5.13;3.50;;;25.70;65.60;;;;;;5034330;28;20485;-82
2022/07/03 06:44:47;;;;;;;6.80;3.77;;;25.70;65.60;;;;;;5028015;28;20488;-82
2022/07/03 06:47:21;;;;;;;4.77;3.03;;;25.70;65.60;;;;;;5043835;28;20516;-83
2022/07/03 06:49:49;;;;;;;10.33;3.47;;;25.80;65.40;;;;;;5033598;28;20988;-84
2022/07/03 06:52:18;;;;;;;5.60;3.30;;;25.80;65.30;;;;;;5032259;28;20478;-82
2022/07/03 06:54:47;;;;;;;5.63;3.47;;;25.80;65.30;;;;;;5055308;28;20494;-83
2022/07/03 06:57:15;;;;;;;6.07;2.70;;;25.80;65.40;;;;;;5035375;28;20520;-83
2022/07/03 06:59:43;;;;;;;4.27;2.87;;;25.80;65.20;;;;;;5016504;28;20813;-82
2022/07/03 07:02:12;;;;;;;6.07;3.50;;;25.80;65.20;;;;;;5043229;28;20454;-81
2022/07/03 07:04:40;;;;;;;6.53;3.57;;;25.80;65.30;;;;;;5029791;28;20454;-82
2022/07/03 07:07:09;;;;;;;3.87;3.17;;;25.90;65.10;;;;;;5025824;28;20501;-83
2022/07/03 07:09:39;;;;;;;4.67;3.17;;;25.90;65.00;;;;;;5034783;28;20883;-81
2022/07/03 07:12:08;;;;;;;4.70;3.30;;;25.90;65.00;;;;;;5037214;28;20538;-82
2022/07/03 07:14:36;;;;;;;7.03;3.70;;;25.90;64.90;;;;;;5031050;28;21074;-81
2022/07/03 07:17:05;;;;;;;4.93;3.40;;;25.90;64.90;;;;;;5042759;28;20509;-82
2022/07/03 07:19:33;;;;;;;3.80;2.40;;;25.90;65.00;;;;;;5046949;28;21004;-82
2022/07/03 07:22:02;;;;;;;5.77;2.50;;;25.90;64.90;;;;;;5046847;28;20454;-81
2022/07/03 07:24:30;;;;;;;3.97;2.60;;;25.90;65.00;;;;;;5047424;28;20954;-83
2022/07/03 07:27:00;;;;;;;6.50;3.30;;;25.90;64.80;;;;;;5045550;28;20440;-82
2022/07/03 07:29:28;;;;;;;8.40;3.63;;;25.90;64.90;;;;;;5038740;28;20478;-81
2022/07/03 07:31:57;;;;;;;7.03;3.37;;;25.90;64.70;;;;;;5036101;28;20904;-82
2022/07/03 07:34:25;;;;;;;6.40;2.90;;;25.90;65.00;;;;;;5052350;28;20818;-82
2022/07/03 07:36:53;;;;;;;4.13;3.30;;;25.90;64.90;;;;;;5040073;28;20524;-82
2022/07/03 07:39:21;;;;;;;6.20;2.90;;;25.90;64.70;;;;;;5053189;28;20452;-82
2022/07/03 07:41:50;;;;;;;4.00;2.50;;;26.00;64.90;;;;;;5037343;28;20480;-82
2022/07/03 07:44:20;;;;;;;5.87;2.50;;;26.00;64.80;;;;;;5035503;28;20498;-82
2022/07/03 07:46:48;;;;;;;2.93;2.53;;;26.00;64.90;;;;;;5065907;28;20464;-82
2022/07/03 07:49:16;;;;;;;3.00;2.40;;;26.00;64.60;;;;;;5044875;28;20497;-81
2022/07/03 07:51:44;;;;;;;2.80;2.33;;;26.00;64.60;;;;;;5046668;28;20466;-81
2022/07/03 07:54:13;;;;;;;3.87;2.23;;;26.00;64.80;;;;;;5049571;28;20448;-83
2022/07/03 07:56:41;;;;;;;5.77;2.70;;;26.00;64.40;;;;;;5045640;28;20479;-83
2022/07/03 07:59:10;;;;;;;2.30;2.10;;;26.00;64.40;;;;;;5047673;28;20449;-83
2022/07/03 08:07:07;;;;;;;4.00;2.40;;;26.00;64.60;;;;;;5025543;28;20535;-83
2022/07/03 08:09:35;;;;;;;3.10;2.67;;;26.00;64.40;;;;;;5035185;28;20533;-82
2022/07/03 08:12:04;;;;;;;3.40;2.33;;;26.00;64.30;;;;;;5035543;28;20439;-83
2022/07/03 08:14:32;;;;;;;4.07;2.70;;;26.00;64.30;;;;;;5035905;28;20950;-83
2022/07/03 08:17:02;;;;;;;3.20;2.90;;;26.00;64.30;;;;;;5034999;28;20514;-84
2022/07/03 08:19:30;;;;;;;3.30;2.23;;;26.10;64.40;;;;;;5035684;28;20461;-82
2022/07/03 08:21:58;;;;;;;3.30;2.40;;;26.10;64.30;;;;;;5040219;28;20810;-83
2022/07/03 08:24:27;;;;;;;2.67;2.10;;;26.10;64.40;;;;;;5050623;28;20472;-83
2022/07/03 08:26:55;;;;;;;2.60;2.40;;;26.10;64.20;;;;;;5014663;28;20420;-83
2022/07/03 08:29:23;;;;;;;2.73;2.40;;;26.10;64.20;;;;;;5033622;28;20445;-83
2022/07/03 08:31:51;;;;;;;2.73;2.50;;;26.10;64.60;;;;;;5040879;28;20457;-83
2022/07/03 08:34:21;;;;;;;2.37;2.10;;;26.10;64.30;;;;;;5044056;28;21016;-84
2022/07/03 08:36:50;;;;;;;3.00;2.10;;;26.10;64.30;;;;;;5054998;28;20449;-83
2022/07/03 08:39:18;;;;;;;3.17;2.43;;;26.10;64.30;;;;;;5035419;28;20518;-83
2022/07/03 08:41:49;;;;;;;2.60;2.40;;;26.10;64.20;;;;;;5033996;28;20452;-85
2022/07/03 08:44:18;;;;;;;2.60;2.30;;;26.10;64.40;;;;;;5030734;28;20536;-83
2022/07/03 08:46:50;;;;;;;3.93;2.40;;;26.10;64.50;;;;;;5051946;28;20442;-84
2022/07/03 08:49:19;;;;;;;2.50;2.30;;;26.10;64.40;;;;;;5047165;28;20540;-86
2022/07/03 08:51:50;;;;;;;3.10;2.80;;;26.10;64.80;;;;;;5045766;28;20522;-83
2022/07/03 08:54:18;;;;;;;3.30;2.40;;;26.20;64.30;;;;;;5051345;28;20461;-83
2022/07/03 08:56:47;;;;;;;3.63;2.43;;;26.20;64.40;;;;;;5046089;28;20497;-84
2022/07/03 08:59:16;;;;;;;2.30;2.10;;;26.20;64.30;;;;;;5040853;28;20472;-82
2022/07/03 09:01:47;;;;;;;2.90;2.13;;;26.20;64.30;;;;;;5028318;28;20561;-82
2022/07/03 09:04:16;;;;;;;5.63;2.13;;;26.20;64.30;;;;;;5025039;28;20470;-82
2022/07/03 09:06:44;;;;;;;2.80;1.93;;;26.20;64.60;;;;;;5046087;28;20477;-82
2022/07/03 09:09:14;;;;;;;2.73;2.00;;;26.20;64.40;;;;;;5022480;28;20478;-83
2022/07/03 09:11:42;;;;;;;2.27;1.90;;;26.20;64.50;;;;;;5043320;28;20481;-81
2022/07/03 09:14:11;;;;;;;2.40;2.20;;;26.20;64.50;;;;;;5049622;28;20456;-82
2022/07/03 09:16:39;;;;;;;2.80;2.20;;;26.20;64.50;;;;;;5031374;28;20487;-84
2022/07/03 09:19:07;;;;;;;3.00;1.97;;;26.30;64.80;;;;;;5033893;28;20478;-82
2022/07/03 09:21:40;;;;;;;2.50;2.23;;;26.30;64.50;;;;;;5033298;28;20494;-82
2022/07/03 09:24:09;;;;;;;2.47;2.00;;;26.30;64.40;;;;;;5014387;28;20546;-82
2022/07/03 09:26:53;;;;;;;2.37;2.20;;;26.30;64.50;;;;;;5037070;28;20492;-81
2022/07/03 09:29:21;;;;;;;4.23;2.17;;;26.30;64.70;;;;;;5016737;28;20517;-81
2022/07/03 09:31:55;;;;;;;2.87;1.80;;;26.30;64.70;;;;;;5038147;28;20475;-82
2022/07/03 09:34:26;;;;;;;2.27;1.90;;;26.30;64.70;;;;;;5040284;28;20456;-81
2022/07/03 09:36:54;;;;;;;2.93;2.63;;;26.30;64.40;;;;;;5031697;28;20455;-81
2022/07/03 09:39:24;;;;;;;2.57;2.20;;;26.30;64.40;;;;;;5032976;28;20496;-82
2022/07/03 09:41:59;;;;;;;3.90;2.73;;;26.30;64.30;;;;;;5032776;28;20509;-82
2022/07/03 09:44:35;;;;;;;2.20;2.00;;;26.30;64.40;;;;;;5026262;28;20463;-82
2022/07/03 09:47:20;;;;;;;2.30;2.10;;;26.30;64.60;;;;;;5019319;28;20482;-83
2022/07/03 09:49:52;;;;;;;5.23;2.40;;;26.30;64.20;;;;;;5027523;28;20519;-82
2022/07/03 09:52:37;;;;;;;4.03;2.47;;;26.30;64.50;;;;;;5045429;28;20471;-80
2022/07/03 09:55:17;;;;;;;2.90;2.50;;;26.30;64.30;;;;;;5028185;28;20471;-80
2022/07/03 09:57:59;;;;;;;2.00;1.80;;;26.40;63.80;;;;;;5025678;28;20548;-81
2022/07/03 10:00:29;;;;;;;2.23;2.00;;;26.30;64.20;;;;;;5036702;28;20822;-82
2022/07/03 10:02:59;;;;;;;2.50;2.30;;;26.40;63.80;;;;;;5042025;28;20454;-81
2022/07/03 10:05:29;;;;;;;2.33;1.80;;;26.40;64.20;;;;;;5023111;28;20862;-83
2022/07/03 10:07:59;;;;;;;2.30;2.00;;;26.40;64.30;;;;;;5033944;28;20490;-84
2022/07/03 10:10:30;;;;;;;2.37;2.17;;;26.40;64.10;;;;;;5031504;28;20458;-82
2022/07/03 10:13:00;;;;;;;2.53;2.33;;;26.40;64.10;;;;;;5032917;28;20502;-82
2022/07/03 10:15:30;;;;;;;3.40;2.47;;;26.40;64.00;;;;;;5033986;28;20453;-84
2022/07/03 10:18:00;;;;;;;3.10;1.97;;;26.40;63.90;;;;;;5030652;28;20458;-82
2022/07/03 10:20:30;;;;;;;2.60;2.40;;;26.40;64.30;;;;;;5030121;28;20555;-82
2022/07/03 10:22:58;;;;;;;2.50;2.30;;;26.40;64.20;;;;;;5034735;28;20452;-82
2022/07/03 10:25:27;;;;;;;4.47;1.93;;;26.40;63.90;;;;;;5033593;28;20558;-83
2022/07/03 10:27:56;;;;;;;3.10;2.40;;;26.40;64.00;;;;;;5037051;28;20546;-83
2022/07/03 10:30:26;;;;;;;2.37;2.17;;;26.40;63.90;;;;;;5041802;28;20490;-84
2022/07/03 10:32:56;;;;;;;2.80;2.53;;;26.40;64.00;;;;;;5035788;28;20455;-84
2022/07/03 10:35:28;;;;;;;2.10;1.90;;;26.40;64.00;;;;;;5049965;28;20454;-83
2022/07/03 10:38:08;;;;;;;2.20;1.73;;;26.40;64.50;;;;;;5039259;28;20462;-82
2022/07/03 10:46:25;;;;;;;2.03;1.83;;;26.50;63.80;;;;;;5035319;28;20806;-81
2022/07/03 10:49:01;;;;;;;2.13;1.93;;;26.50;63.80;;;;;;5031458;28;20501;-85
2022/07/03 10:51:31;;;;;;;2.77;2.57;;;26.50;63.90;;;;;;5014581;28;20951;-82
2022/07/03 10:54:17;;;;;;;2.17;1.97;;;26.50;64.10;;;;;;5035168;28;20477;-81
2022/07/03 10:57:18;;;;;;;2.00;1.63;;;26.50;63.70;;;;;;5058092;28;20425;-82
2022/07/03 11:00:08;;;;;;;2.70;2.50;;;26.50;63.80;;;;;;5033362;28;20475;-83
2022/07/03 11:02:39;;;;;;;2.10;1.90;;;26.50;63.60;;;;;;5038067;28;20462;-82
2022/07/03 11:05:22;;;;;;;2.10;1.90;;;26.50;63.70;;;;;;5047385;28;20458;-83
2022/07/03 11:08:13;;;;;;;2.00;1.70;;;26.50;63.80;;;;;;5038379;28;20459;-82
2022/07/03 11:10:43;;;;;;;2.33;2.03;;;26.50;63.80;;;;;;5043188;28;20462;-81
2022/07/03 11:13:15;;;;;;;2.50;1.97;;;26.50;63.70;;;;;;5042198;28;20459;-81
2022/07/03 11:15:46;;;;;;;2.40;2.20;;;26.60;63.80;;;;;;5036466;28;20517;-83
2022/07/03 11:18:34;;;;;;;3.10;2.00;;;26.60;63.70;;;;;;5040070;28;20468;-83
2022/07/03 11:21:34;;;;;;;3.57;1.80;;;26.60;63.80;;;;;;5041145;28;20450;-82
2022/07/03 11:24:26;;;;;;;3.00;2.03;;;26.60;63.60;;;;;;5034998;28;20509;-81
2022/07/03 11:27:27;;;;;;;1.77;1.50;;;26.50;63.50;;;;;;5018249;28;20932;-82
2022/07/03 11:29:58;;;;;;;1.87;1.73;;;26.50;63.50;;;;;;4993916;28;20508;-81
2022/07/03 11:32:53;;;;;;;2.43;1.97;;;26.50;63.50;;;;;;5038993;28;20995;-80
2022/07/03 11:35:53;;;;;;;2.30;2.10;;;26.50;63.60;;;;;;5017579;28;20449;-80
2022/07/03 11:38:24;;;;;;;2.13;1.70;;;26.50;63.40;;;;;;5035988;28;20562;-80
2022/07/03 11:40:54;;;;;;;2.90;2.70;;;26.50;63.40;;;;;;5039886;28;20455;-82
2022/07/03 11:43:22;;;;;;;1.70;1.60;;;26.60;63.30;;;;;;5040899;28;20450;-81
2022/07/03 11:45:51;;;;;;;2.87;1.93;;;26.60;63.30;;;;;;5040165;28;20457;-79
2022/07/03 11:48:20;;;;;;;2.03;1.83;;;26.60;63.30;;;;;;5040418;28;20544;-79
2022/07/03 11:50:52;;;;;;;4.00;2.10;;;26.70;63.00;;;;;;5033985;28;20543;-81
2022/07/03 11:53:26;;;;;;;1.93;1.83;;;26.70;62.90;;;;;;5032468;28;20502;-81
2022/07/03 11:55:56;;;;;;;3.00;2.00;;;26.70;62.90;;;;;;5042610;28;20498;-80
2022/07/03 11:58:26;;;;;;;1.60;1.50;;;26.80;62.70;;;;;;5050013;28;20477;-82
2022/07/03 12:00:54;;;;;;;2.00;1.70;;;26.80;62.50;;;;;;5035252;28;20473;-82
2022/07/03 12:03:27;;;;;;;3.60;1.90;;;26.90;62.40;;;;;;5038665;28;20519;-82
2022/07/03 12:06:00;;;;;;;1.53;1.43;;;26.90;62.50;;;;;;5035355;28;20461;-83
2022/07/03 12:08:30;;;;;;;2.23;1.53;;;26.90;62.30;;;;;;5031033;28;20490;-83
2022/07/03 12:11:08;;;;;;;1.80;1.70;;;26.90;62.20;;;;;;5039695;28;20486;-82
2022/07/03 12:13:36;;;;;;;2.13;1.83;;;27.00;62.20;;;;;;5014457;28;20613;-82
2022/07/03 12:16:10;;;;;;;2.00;1.90;;;27.00;62.10;;;;;;5014691;28;20472;-83
2022/07/03 12:18:50;;;;;;;1.87;1.67;;;27.10;61.90;;;;;;5038919;28;20520;-82
2022/07/03 12:21:22;;;;;;;1.90;1.60;;;27.20;61.80;;;;;;5035091;28;21009;-83
2022/07/03 12:23:53;;;;;;;1.70;1.60;;;27.30;61.50;;;;;;5034611;28;20465;-81
2022/07/03 12:26:29;;;;;;;3.40;1.40;;;27.40;61.30;;;;;;5023219;28;20999;-82
2022/07/03 12:28:59;;;;;;;2.00;1.80;;;27.60;60.90;;;;;;5037150;28;20559;-83
2022/07/03 12:31:29;;;;;;;2.00;1.80;;;27.70;60.70;;;;;;5037413;28;20481;-81
2022/07/03 12:33:58;;;;;;;1.90;1.80;;;27.90;60.40;;;;;;5045893;28;20931;-81
2022/07/03 12:36:29;;;;;;;1.70;1.53;;;28.10;60.00;;;;;;5045248;28;20457;-81
2022/07/03 12:38:59;;;;;;;1.93;1.43;;;28.30;59.50;;;;;;5043866;28;20443;-81
2022/07/03 12:41:28;;;;;;;1.77;1.63;;;28.50;59.10;;;;;;5039233;28;20450;-81
2022/07/03 12:43:59;;;;;;;1.77;1.60;;;28.60;58.80;;;;;;5035037;28;20644;-81
2022/07/03 12:46:33;;;;;;;1.63;1.50;;;28.80;58.50;;;;;;5022524;28;21116;-83
2022/07/03 12:49:09;;;;;;;2.53;1.77;;;28.90;58.20;;;;;;5032272;28;20533;-81
2022/07/03 12:51:41;;;;;;;1.70;1.60;;;29.00;58.00;;;;;;5033704;28;20566;-82
2022/07/03 12:54:11;;;;;;;1.67;1.50;;;29.00;58.00;;;;;;5033746;28;20485;-81
2022/07/03 12:56:39;;;;;;;1.57;1.43;;;29.00;58.10;;;;;;5033667;28;20468;-82
2022/07/03 12:59:19;;;;;;;2.07;1.57;;;29.00;58.10;;;;;;5025695;28;21040;-82
2022/07/03 13:02:01;;;;;;;2.00;1.80;;;28.90;58.20;;;;;;5033791;28;20463;-81
2022/07/03 13:04:34;;;;;;;1.50;1.40;;;28.90;58.30;;;;;;5031850;28;20493;-80
2022/07/03 13:07:05;;;;;;;1.50;1.40;;;28.90;58.20;;;;;;5049720;28;20455;-80
2022/07/03 13:09:35;;;;;;;1.90;1.70;;;29.00;58.20;;;;;;5033599;28;20458;-82
2022/07/03 13:12:04;;;;;;;2.00;1.83;;;28.90;58.20;;;;;;5033894;28;20450;-82
2022/07/03 13:14:32;;;;;;;1.60;1.50;;;28.90;58.30;;;;;;5027057;28;20512;-82
2022/07/03 13:17:01;;;;;;;1.50;1.40;;;28.90;58.40;;;;;;5053459;28;20505;-82
2022/07/03 13:19:30;;;;;;;1.50;1.40;;;28.80;58.50;;;;;;5045433;28;20465;-80